KADW/ADW METAR and TAF weather

Enter ICAO airport designator
Station Type Date Time Source
KADW METAR 2019/08/19 12:56 UTC NOAA

KADW 191256Z AUTO 25004KT 10SM FEW150 FEW180 27/23 A3000 RMK AO2 SLP163 T02660230 VISNO RWY01R $


Station Type Date Time Source
KADW Decoded METAR 2019/08/19 12:56 UTC NOAA

Station name not available
Aug 19, 2019 - 08:56 AM EDT / 2019.08.19 1256 UTC
Wind: from the WSW (250 degrees) at 5 MPH (4 KT):0
Visibility: 10 mile(s):0
Sky conditions: mostly clear
Temperature: 79.9 F (26.6 C)
Dew Point: 73.4 F (23.0 C)
Relative Humidity: 80%
Pressure (altimeter): 30 in. Hg (1015 hPa)
ob: KADW 191256Z AUTO 25004KT 10SM FEW150 FEW180 27/23 A3000 RMK AO2 SLP163 T02660230 VISNO RWY01R
cycle: 13

Station Type Date Time Source
KADW TAF 2019/08/19 09:06 UTC NOAA

TAF TAF KADW 190900Z 1909/2015 23006KT 9999 SKC QNH2996INS
BECMG 1915/1916 25006KT 9999 SCT060 SCT190 QNH2998INS
BECMG 1918/1919 28009KT 9999 VCTS FEW050CB BKN090 BKN210 QNH2997INS
BECMG 1923/1924 30006KT 9999 NSW SCT080 BKN210 QNH2997INS
BECMG 2004/2005 35006KT 9999 SKC QNH3000INS
BECMG 2013/2014 04006KT 9999 SCT070 QNH3002INS TX35/1920Z TN22/1909Z

Example: see airport list